Area
區域
MosquitoTrap
捕蚊器
DateTime
日期時間
Type
種類
Temperature
溫度
Humidity
濕度
CO2
二氧化碳
Address
住址
GPS
座標
臺南 NHRI-IBEN-0016 2019-09-20 11:24:41 班蚊 27 62.4 1750.96 702台南市南區大同路二段752號 (120.215487, 22.965679)
臺南 NHRI-IBEN-0016 2019-09-20 10:42:42 班蚊 26.5 58.8 1750.96 702台南市南區大同路二段752號 (120.215487, 22.965679)
臺南 NHRI-IBEN-0016 2019-09-20 09:52:39 班蚊 27.8 61.7 1749.72 702台南市南區大同路二段752號 (120.215487, 22.965679)
臺南 NHRI-IBEN-0016 2019-09-20 08:10:34 班蚊 28.2 60 1750.96 702台南市南區大同路二段752號 (120.215487, 22.965679)
臺南 NHRI-IBEN-0016 2019-09-20 02:53:54 班蚊 27.7 58.8 1748.49 702台南市南區大同路二段752號 (120.215487, 22.965679)
苗栗 NHRI-IBEN-0020 2019-09-20 02:44:24 班蚊 0 0 1.26 350 苗栗縣竹南鎮科研路35號 (22.965207, 120.92955)
苗栗 NHRI-IBEN-0020 2019-09-20 02:44:14 家蚊 0 0 1.26 350 苗栗縣竹南鎮科研路35號 (22.965207, 120.92955)
苗栗 NHRI-IBEN-0020 2019-09-20 02:15:37 班蚊 0 0 1.26 350 苗栗縣竹南鎮科研路35號 (22.965207, 120.92955)
苗栗 NHRI-IBEN-0020 2019-09-20 02:15:28 家蚊 34.4 43.1 1.26 350 苗栗縣竹南鎮科研路35號 (22.965207, 120.92955)
苗栗 NHRI-IBEN-0020 2019-09-20 01:32:19 班蚊 34.5 45.1 1.26 350 苗栗縣竹南鎮科研路35號 (22.965207, 120.92955)
苗栗 NHRI-IBEN-0020 2019-09-19 22:39:33 班蚊 34.4 44.9 1.26 350 苗栗縣竹南鎮科研路35號 (22.965207, 120.92955)
苗栗 NHRI-IBEN-0020 2019-09-19 22:39:19 家蚊 34.4 38.6 1.26 350 苗栗縣竹南鎮科研路35號 (22.965207, 120.92955)
苗栗 NHRI-IBEN-0020 2019-09-19 21:46:16 班蚊 34.4 38.9 1.26 350 苗栗縣竹南鎮科研路35號 (22.965207, 120.92955)
苗栗 NHRI-IBEN-0020 2019-09-19 21:46:07 家蚊 34 38.1 1.26 350 苗栗縣竹南鎮科研路35號 (22.965207, 120.92955)
苗栗 NHRI-IBEN-0020 2019-09-19 21:07:54 班蚊 34 37.8 1.26 350 苗栗縣竹南鎮科研路35號 (22.965207, 120.92955)
苗栗 NHRI-IBEN-0020 2019-09-19 21:07:45 家蚊 34.4 44.9 1.26 350 苗栗縣竹南鎮科研路35號 (22.965207, 120.92955)
苗栗 NHRI-IBEN-0020 2019-09-19 20:11:18 班蚊 34.4 44.9 1.26 350 苗栗縣竹南鎮科研路35號 (22.965207, 120.92955)
苗栗 NHRI-IBEN-0020 2019-09-19 20:11:09 家蚊 34.7 43.2 1.26 350 苗栗縣竹南鎮科研路35號 (22.965207, 120.92955)
苗栗 NHRI-IBEN-0020 2019-09-19 19:37:03 班蚊 34.8 43.6 1.26 350 苗栗縣竹南鎮科研路35號 (22.965207, 120.92955)
苗栗 NHRI-IBEN-0020 2019-09-19 19:36:54 家蚊 34.3 41 1.26 350 苗栗縣竹南鎮科研路35號 (22.965207, 120.92955)
苗栗 NHRI-IBEN-0020 2019-09-19 18:14:09 班蚊 34.4 41.2 1.26 350 苗栗縣竹南鎮科研路35號 (22.965207, 120.92955)
苗栗 NHRI-IBEN-0020 2019-09-19 18:14:00 家蚊 34.6 47.8 1.26 350 苗栗縣竹南鎮科研路35號 (22.965207, 120.92955)
苗栗 NHRI-IBEN-0020 2019-09-19 18:07:38 班蚊 34.6 47.8 1.26 350 苗栗縣竹南鎮科研路35號 (22.965207, 120.92955)
苗栗 NHRI-IBEN-0020 2019-09-19 18:07:29 家蚊 34 49.3 1.26 350 苗栗縣竹南鎮科研路35號 (22.965207, 120.92955)
苗栗 NHRI-IBEN-0020 2019-09-19 16:20:06 班蚊 33.1 41.1 1.26 350 苗栗縣竹南鎮科研路35號 (22.965207, 120.92955)

 第一頁 / 上一頁 / 下一頁 / 最後一頁 (Total Records:2691 )Download Data / Refresh Page

Type

National Health Research Institutes Institute of Biomedical Engineering and Nanomedicine
Tel:886-37-246166#37125 Fax:886-37-586440
Email: ldliao@nhri.org.tw
ADDRESS: No.35, Keyan Rd., Zhunan Township, Miaoli County 350, Taiwan (R.O.C.)
地址:350 苗栗縣竹南鎮科研路35號